Time;durP1;ratioP1;P1;durP2;ratioP2;P2;SDS_P1;SDS_P2;PMS_P1;PMS_P2;Temp;Humidity;BMP_temperature;BMP_pressure;BME280_temperature;BME280_humidity;BME280_pressure;Samples;Min_cycle;Max_cycle;Signal;HPM_P1;HPM_P2
2022/06/18 00:01:35;;;;;;;6.80;3.08;;;20.70;99.90;;;;;;5156246;27;20043;-52
2022/06/18 00:04:10;;;;;;;5.88;3.00;;;20.70;99.90;;;;;;5156075;27;20492;-48
2022/06/18 00:06:44;;;;;;;6.20;3.17;;;20.70;99.90;;;;;;5156416;27;20121;-52
2022/06/18 00:09:12;;;;;;;5.43;3.17;;;20.60;99.90;;;;;;5155914;27;20053;-50
2022/06/18 00:14:22;;;;;;;5.95;3.05;;;20.50;99.90;;;;;;5155978;27;20119;-50
2022/06/18 00:16:48;;;;;;;6.85;3.92;;;20.50;99.90;;;;;;5156106;27;20031;-48
2022/06/18 00:19:14;;;;;;;5.13;3.30;;;20.50;99.90;;;;;;5155660;27;20041;-49
2022/06/18 00:21:39;;;;;;;7.07;3.50;;;20.40;99.90;;;;;;5156110;27;20433;-52
2022/06/18 00:24:19;;;;;;;5.25;3.40;;;20.40;99.90;;;;;;5155694;27;20422;-49
2022/06/18 00:26:46;;;;;;;4.55;3.40;;;20.40;99.90;;;;;;5155682;27;20042;-48
2022/06/18 00:29:15;;;;;;;6.50;3.50;;;20.40;99.90;;;;;;5155476;27;20082;-49
2022/06/18 00:31:41;;;;;;;5.13;3.25;;;20.30;99.90;;;;;;5155398;27;20030;-48
2022/06/18 00:34:07;;;;;;;5.32;3.78;;;20.20;99.90;;;;;;5137260;27;20045;-49
2022/06/18 00:36:35;;;;;;;6.40;3.80;;;20.30;99.90;;;;;;5155171;27;20078;-51
2022/06/18 00:39:00;;;;;;;5.70;3.75;;;20.20;99.90;;;;;;5155454;27;20046;-48
2022/06/18 00:41:26;;;;;;;4.88;3.40;;;20.20;99.90;;;;;;5155367;27;20039;-50
2022/06/18 00:44:06;;;;;;;5.55;4.03;;;20.20;99.90;;;;;;5155163;27;20485;-49
2022/06/18 00:46:41;;;;;;;6.20;3.83;;;20.20;99.90;;;;;;5155331;27;20074;-49
2022/06/18 00:49:27;;;;;;;5.25;4.10;;;20.20;99.90;;;;;;5155253;27;20065;-49
2022/06/18 00:52:16;;;;;;;4.70;3.53;;;20.10;99.90;;;;;;5154903;27;20055;-48
2022/06/18 00:55:03;;;;;;;9.48;3.90;;;20.20;99.90;;;;;;5155180;27;20058;-51
2022/06/18 00:57:53;;;;;;;4.07;3.72;;;20.10;99.90;;;;;;5155074;27;20074;-49
2022/06/18 01:00:28;;;;;;;4.18;3.63;;;20.20;99.90;;;;;;5154997;27;20043;-49
2022/06/18 01:02:55;;;;;;;8.52;3.95;;;20.20;99.90;;;;;;5155046;27;20046;-49
2022/06/18 01:05:26;;;;;;;5.90;4.22;;;20.10;99.90;;;;;;5154858;27;20062;-49
2022/06/18 01:07:57;;;;;;;5.63;3.60;;;20.20;99.90;;;;;;5154719;27;20404;-50
2022/06/18 01:10:36;;;;;;;7.13;4.15;;;20.10;99.90;;;;;;5154894;27;20042;-49
2022/06/18 01:13:06;;;;;;;4.95;3.88;;;20.20;99.90;;;;;;5154833;27;20085;-49
2022/06/18 01:15:32;;;;;;;6.20;4.18;;;;;;;;;;5154731;27;20031;-49
2022/06/18 01:18:00;;;;;;;4.57;3.70;;;20.10;99.90;;;;;;5154614;27;20054;-50
2022/06/18 01:20:26;;;;;;;6.70;3.95;;;20.10;99.90;;;;;;5154980;27;20064;-50
2022/06/18 01:22:58;;;;;;;4.40;4.00;;;20.10;99.90;;;;;;5154805;27;20039;-48
2022/06/18 01:25:26;;;;;;;4.28;3.95;;;20.10;99.90;;;;;;5155029;27;20050;-52
2022/06/18 01:27:54;;;;;;;4.72;4.03;;;20.00;99.90;;;;;;5154665;27;20045;-48
2022/06/18 01:30:23;;;;;;;4.50;4.10;;;20.00;99.90;;;;;;5154566;27;20123;-48
2022/06/18 01:32:52;;;;;;;7.82;4.60;;;20.00;99.90;;;;;;5154585;27;20091;-48
2022/06/18 01:35:19;;;;;;;5.43;4.05;;;20.00;99.90;;;;;;5154274;27;20396;-49
2022/06/18 01:37:46;;;;;;;5.70;4.53;;;20.00;99.90;;;;;;5154518;27;20093;-49
2022/06/18 01:40:19;;;;;;;5.03;4.30;;;20.00;99.90;;;;;;5156635;27;20035;-49
2022/06/18 01:42:48;;;;;;;6.78;4.70;;;20.00;99.90;;;;;;5159458;27;20050;-48
2022/06/18 01:45:24;;;;;;;5.38;4.60;;;20.10;99.90;;;;;;5158572;27;20564;-48
2022/06/18 01:47:59;;;;;;;7.72;5.03;;;20.00;99.90;;;;;;5158755;27;20392;-48
2022/06/18 01:50:29;;;;;;;7.53;5.15;;;20.00;99.90;;;;;;5147405;23;20048;-50
2022/06/18 01:53:20;;;;;;;5.95;4.80;;;20.00;99.90;;;;;;4983041;28;20059;-49
2022/06/18 01:55:52;;;;;;;12.38;5.10;;;19.90;99.90;;;;;;4982177;28;20047;-48
2022/06/18 01:58:37;;;;;;;6.43;4.93;;;19.90;99.90;;;;;;4974112;28;20051;-50
2022/06/18 02:01:08;;;;;;;6.70;5.00;;;19.90;99.90;;;;;;4992716;28;20528;-51
2022/06/18 02:03:34;;;;;;;6.65;4.72;;;19.90;99.90;;;;;;4993236;28;20053;-49
2022/06/18 02:06:00;;;;;;;6.05;5.13;;;19.80;99.90;;;;;;4993217;28;20050;-50
2022/06/18 02:08:26;;;;;;;7.28;5.07;;;19.90;99.90;;;;;;4983321;28;20054;-53
2022/06/18 02:10:57;;;;;;;6.50;5.03;;;19.80;99.90;;;;;;4973769;28;20035;-52
2022/06/18 02:13:27;;;;;;;7.95;5.60;;;19.80;99.90;;;;;;4973492;28;20436;-50
2022/06/18 02:15:55;;;;;;;9.25;5.47;;;19.80;99.90;;;;;;4973376;28;20397;-49
2022/06/18 02:18:21;;;;;;;6.57;5.10;;;19.80;99.90;;;;;;4973507;28;20047;-49
2022/06/18 02:20:51;;;;;;;6.05;5.38;;;19.80;99.90;;;;;;4973557;28;20042;-50
2022/06/18 02:23:18;;;;;;;7.18;5.30;;;19.80;99.90;;;;;;4973621;28;20047;-51
2022/06/18 02:25:45;;;;;;;6.50;5.30;;;19.70;99.90;;;;;;4984941;28;20512;-50
2022/06/18 02:28:12;;;;;;;9.20;6.18;;;;;;;;;;4992873;28;20038;-49
2022/06/18 02:30:38;;;;;;;6.47;5.40;;;19.70;99.90;;;;;;4992788;28;20049;-51
2022/06/18 02:33:25;;;;;;;10.52;5.97;;;19.70;99.90;;;;;;4992560;28;20042;-49
2022/06/18 02:35:51;;;;;;;10.05;5.32;;;19.70;99.90;;;;;;4992535;28;20480;-49
2022/06/18 02:38:20;;;;;;;6.35;5.32;;;19.70;99.90;;;;;;4992701;28;20046;-51
2022/06/18 02:40:45;;;;;;;6.65;5.30;;;19.60;99.90;;;;;;4992682;28;20074;-52
2022/06/18 02:43:13;;;;;;;6.35;5.63;;;19.60;99.90;;;;;;4992842;28;20569;-50
2022/06/18 02:45:40;;;;;;;12.05;5.78;;;19.60;99.90;;;;;;4992589;28;20072;-51
2022/06/18 02:48:09;;;;;;;8.30;5.32;;;19.60;99.90;;;;;;4992676;28;20047;-48
2022/06/18 02:50:38;;;;;;;7.35;5.22;;;19.60;99.90;;;;;;4993845;28;20121;-50
2022/06/18 02:53:04;;;;;;;9.93;5.38;;;19.50;99.90;;;;;;5012029;28;20046;-49
2022/06/18 02:55:38;;;;;;;6.75;5.18;;;19.50;99.90;;;;;;5011878;28;20069;-51
2022/06/18 02:58:25;;;;;;;7.50;5.13;;;19.50;99.90;;;;;;5011877;28;20115;-48
2022/06/18 03:00:54;;;;;;;7.03;5.57;;;19.50;99.90;;;;;;4992266;28;20054;-49
2022/06/18 03:03:23;;;;;;;9.27;5.88;;;19.50;99.90;;;;;;4992389;28;20058;-49
2022/06/18 03:05:52;;;;;;;7.55;5.78;;;19.50;99.90;;;;;;4992334;28;20086;-49
2022/06/18 03:08:19;;;;;;;6.68;5.57;;;19.50;99.90;;;;;;4992094;28;20050;-51
2022/06/18 03:13:28;;;;;;;7.25;5.15;;;19.50;99.90;;;;;;4992289;28;20144;-50
2022/06/18 03:15:56;;;;;;;9.55;6.00;;;19.40;99.90;;;;;;4991996;28;20122;-50
2022/06/18 03:18:25;;;;;;;6.45;5.70;;;19.40;99.90;;;;;;4992184;28;20045;-50
2022/06/18 03:21:05;;;;;;;8.05;5.95;;;19.40;99.90;;;;;;4992024;28;20042;-50
2022/06/18 03:23:31;;;;;;;7.80;5.68;;;19.40;99.90;;;;;;4992369;28;20129;-49
2022/06/18 03:25:57;;;;;;;7.45;5.90;;;19.50;99.90;;;;;;4992074;28;20397;-48
2022/06/18 03:28:25;;;;;;;10.23;5.60;;;19.50;99.90;;;;;;4992171;28;20043;-52
2022/06/18 03:30:50;;;;;;;8.75;6.22;;;19.40;99.90;;;;;;4991993;28;20042;-49
2022/06/18 03:33:16;;;;;;;7.30;5.72;;;19.50;99.90;;;;;;4991772;28;20052;-48
2022/06/18 03:35:45;;;;;;;7.45;5.70;;;19.50;99.90;;;;;;4991715;28;20038;-49
2022/06/18 03:38:12;;;;;;;9.68;5.68;;;19.50;99.90;;;;;;4992069;28;20034;-51
2022/06/18 03:40:38;;;;;;;7.13;5.53;;;19.60;99.90;;;;;;4991821;28;20069;-51
2022/06/18 03:43:04;;;;;;;7.82;5.80;;;19.50;99.90;;;;;;4991766;28;20476;-51
2022/06/18 03:45:34;;;;;;;8.50;6.25;;;19.60;99.90;;;;;;4991803;28;20050;-49
2022/06/18 03:48:00;;;;;;;8.43;6.05;;;19.60;99.90;;;;;;4991497;28;20140;-50
2022/06/18 03:50:25;;;;;;;7.85;6.03;;;19.60;99.90;;;;;;4991638;28;20496;-50
2022/06/18 03:52:51;;;;;;;8.60;6.88;;;19.70;99.90;;;;;;4991352;28;20050;-48
2022/06/18 03:55:17;;;;;;;8.15;6.40;;;19.70;99.90;;;;;;4991452;28;20092;-52
2022/06/18 03:57:43;;;;;;;7.00;6.30;;;19.80;99.90;;;;;;4991323;28;20404;-51
2022/06/18 04:00:18;;;;;;;8.50;6.68;;;19.80;99.90;;;;;;4991606;28;20125;-50
2022/06/18 04:02:43;;;;;;;9.57;6.72;;;19.90;99.90;;;;;;4990657;28;20038;-51
2022/06/18 04:05:10;;;;;;;7.22;6.32;;;19.90;99.90;;;;;;4991523;28;20038;-48
2022/06/18 04:07:37;;;;;;;8.52;6.60;;;20.00;99.90;;;;;;4991406;28;20042;-49
2022/06/18 04:10:04;;;;;;;9.27;6.90;;;20.10;99.90;;;;;;4991383;28;20073;-49
2022/06/18 04:12:30;;;;;;;9.98;7.03;;;20.10;99.90;;;;;;4991298;28;20171;-49
2022/06/18 04:14:56;;;;;;;8.05;7.18;;;20.20;99.90;;;;;;4991320;28;20377;-50
2022/06/18 04:17:22;;;;;;;8.80;7.13;;;20.30;99.90;;;;;;4991015;28;20526;-51
2022/06/18 04:19:48;;;;;;;11.80;7.75;;;20.30;99.90;;;;;;4991293;28;20103;-49
2022/06/18 04:22:14;;;;;;;9.00;6.43;;;20.40;99.90;;;;;;4990939;28;20480;-51
2022/06/18 04:24:40;;;;;;;9.05;7.47;;;20.40;99.90;;;;;;4991112;28;20113;-49
2022/06/18 04:27:05;;;;;;;8.57;7.60;;;20.50;99.90;;;;;;4990990;28;20439;-53
2022/06/18 04:29:32;;;;;;;9.73;7.60;;;20.60;99.90;;;;;;4990993;28;20129;-50
2022/06/18 04:31:59;;;;;;;11.30;7.93;;;20.60;99.90;;;;;;4990824;28;20081;-53
2022/06/18 04:34:25;;;;;;;9.03;8.13;;;20.70;99.90;;;;;;4991159;28;20050;-48
2022/06/18 04:36:51;;;;;;;13.55;8.30;;;21.00;99.90;;;;;;4991067;28;20541;-51
2022/06/18 04:39:16;;;;;;;9.05;8.05;;;21.50;99.90;;;;;;4991031;28;20042;-49
2022/06/18 04:41:42;;;;;;;8.95;7.78;;;21.90;99.90;;;;;;4990937;28;20088;-50
2022/06/18 04:44:08;;;;;;;9.05;7.55;;;22.40;99.90;;;;;;4991018;28;20065;-52
2022/06/18 04:46:33;;;;;;;12.18;8.60;;;22.80;99.90;;;;;;4990847;28;20054;-53
2022/06/18 04:48:59;;;;;;;9.32;7.25;;;23.20;99.90;;;;;;4990984;28;20137;-50
2022/06/18 04:51:25;;;;;;;10.80;8.27;;;23.60;99.90;;;;;;4990688;28;20467;-49
2022/06/18 04:53:50;;;;;;;9.75;7.35;;;23.90;99.90;;;;;;4990863;28;20039;-50
2022/06/18 04:56:16;;;;;;;13.18;8.30;;;24.20;99.90;;;;;;4990589;28;20463;-53
2022/06/18 04:58:42;;;;;;;9.82;7.80;;;24.50;99.90;;;;;;4990734;28;20489;-50
2022/06/18 05:01:13;;;;;;;10.57;8.07;;;24.90;99.90;;;;;;4990673;28;20078;-54
2022/06/18 05:03:39;;;;;;;14.32;8.38;;;25.30;99.90;;;;;;4990822;28;20059;-50
2022/06/18 05:06:04;;;;;;;12.07;7.85;;;25.40;99.90;;;;;;4990738;28;20042;-52
2022/06/18 05:08:30;;;;;;;10.50;7.53;;;25.70;99.90;;;;;;4990802;28;20047;-54
2022/06/18 05:10:55;;;;;;;9.80;7.63;;;25.90;99.90;;;;;;4990576;28;20481;-52
2022/06/18 05:13:21;;;;;;;9.95;7.93;;;26.10;99.90;;;;;;4990175;28;20057;-50
2022/06/18 05:15:49;;;;;;;12.18;7.97;;;26.20;99.90;;;;;;4989549;28;20420;-50
2022/06/18 05:18:16;;;;;;;10.52;7.85;;;26.50;99.90;;;;;;4990737;28;20038;-51
2022/06/18 05:20:42;;;;;;;11.25;8.32;;;26.70;99.90;;;;;;4990482;28;20042;-54
2022/06/18 05:23:11;;;;;;;14.15;8.07;;;26.80;99.90;;;;;;4990449;28;20053;-50
2022/06/18 05:25:37;;;;;;;10.63;8.07;;;26.90;99.90;;;;;;4990478;28;20062;-54
2022/06/18 05:28:02;;;;;;;13.75;8.05;;;27.00;99.90;;;;;;4990249;28;20043;-53
2022/06/18 05:30:28;;;;;;;9.70;8.20;;;27.40;99.90;;;;;;4989104;28;20477;-51
2022/06/18 05:32:53;;;;;;;13.60;8.07;;;27.50;99.80;;;;;;4989031;28;20409;-50
2022/06/18 05:35:19;;;;;;;11.32;8.30;;;27.50;99.50;;;;;;4990332;28;20096;-51
2022/06/18 05:37:46;;;;;;;11.77;8.20;;;27.80;99.00;;;;;;4990258;28;20050;-50
2022/06/18 05:40:13;;;;;;;11.13;7.85;;;27.80;98.60;;;;;;4990297;28;20072;-50
2022/06/18 05:42:38;;;;;;;12.35;7.93;;;27.90;98.80;;;;;;4990279;28;20054;-54
2022/06/18 05:45:05;;;;;;;15.38;8.85;;;28.10;98.70;;;;;;4990344;28;20039;-51
2022/06/18 05:47:32;;;;;;;13.95;8.43;;;28.20;97.90;;;;;;4989976;28;20142;-53
2022/06/18 05:49:59;;;;;;;15.48;8.38;;;28.50;97.90;;;;;;4990276;28;20039;-51
2022/06/18 05:52:26;;;;;;;10.27;8.38;;;28.60;97.10;;;;;;4989858;28;20059;-53
2022/06/18 05:54:52;;;;;;;14.50;8.75;;;28.70;96.60;;;;;;4989967;28;20557;-52
2022/06/18 05:57:19;;;;;;;11.23;7.85;;;;;;;;;;4990063;28;20125;-54
2022/06/18 05:59:45;;;;;;;14.43;8.38;;;29.00;96.30;;;;;;4990060;28;20511;-54
2022/06/18 06:02:12;;;;;;;14.23;8.30;;;29.20;95.70;;;;;;4990153;28;20054;-51
2022/06/18 06:04:39;;;;;;;11.60;7.88;;;29.30;95.50;;;;;;4990056;28;20500;-52
2022/06/18 06:07:06;;;;;;;11.40;7.85;;;29.40;94.90;;;;;;4990034;28;20050;-55
2022/06/18 06:12:16;;;;;;;13.80;7.95;;;29.60;94.20;;;;;;4990303;28;20061;-54
2022/06/18 06:14:42;;;;;;;13.48;8.57;;;29.70;94.40;;;;;;4990150;28;20042;-53
2022/06/18 06:17:16;;;;;;;13.05;8.48;;;29.80;94.20;;;;;;4989891;28;20042;-55
2022/06/18 06:19:42;;;;;;;13.15;8.38;;;29.80;93.60;;;;;;4989856;28;20095;-54
2022/06/18 06:22:07;;;;;;;14.82;9.57;;;29.80;93.20;;;;;;4990381;28;20050;-52
2022/06/18 06:24:33;;;;;;;13.90;9.02;;;30.00;93.40;;;;;;4989888;28;20069;-54
2022/06/18 06:26:58;;;;;;;18.00;9.13;;;29.90;92.70;;;;;;4992641;28;20474;-51
2022/06/18 06:29:24;;;;;;;10.90;8.48;;;30.10;92.90;;;;;;4993274;28;20046;-54
2022/06/18 06:31:49;;;;;;;17.48;9.00;;;30.10;92.50;;;;;;4993194;28;20074;-55
2022/06/18 06:34:15;;;;;;;11.68;8.52;;;30.30;92.40;;;;;;4993206;28;20100;-54
2022/06/18 06:36:41;;;;;;;16.02;8.50;;;30.30;92.20;;;;;;4992863;28;20442;-54
2022/06/18 06:39:06;;;;;;;14.48;9.30;;;30.50;92.50;;;;;;4992621;28;20145;-54
2022/06/18 06:41:32;;;;;;;16.52;8.80;;;30.50;91.20;;;;;;4992979;28;20138;-53
2022/06/18 06:43:58;;;;;;;16.42;9.00;;;30.50;91.50;;;;;;4992700;28;20043;-54
2022/06/18 06:46:24;;;;;;;14.40;8.00;;;30.60;91.20;;;;;;4992824;28;20130;-53
2022/06/18 06:48:50;;;;;;;13.75;8.30;;;30.60;91.30;;;;;;4992707;28;20451;-54
2022/06/18 06:51:24;;;;;;;16.10;8.57;;;30.50;90.30;;;;;;4992434;28;20042;-53
2022/06/18 06:53:50;;;;;;;11.75;7.22;;;30.20;90.20;;;;;;4992666;28;20046;-55
2022/06/18 06:59:04;;;;;;;14.57;8.02;;;30.20;90.40;;;;;;4992630;28;20042;-53
2022/06/18 07:01:30;;;;;;;18.50;8.48;;;30.10;90.90;;;;;;4992498;28;20496;-55
2022/06/18 07:03:56;;;;;;;16.02;8.73;;;30.30;90.90;;;;;;4992437;28;20088;-52
2022/06/18 07:06:22;;;;;;;14.38;7.65;;;29.80;90.50;;;;;;4992623;28;20074;-53
2022/06/18 07:08:47;;;;;;;16.67;8.07;;;29.80;91.30;;;;;;4992570;28;20046;-51
2022/06/18 07:11:14;;;;;;;19.25;7.95;;;30.00;90.90;;;;;;4992507;28;20038;-52
2022/06/18 07:13:40;;;;;;;;;;;30.10;90.90;;;;;;4992830;28;20052;-53
2022/06/18 07:16:05;;;;;;;15.50;8.40;;;30.40;91.00;;;;;;4992294;28;20363;-56
2022/06/18 07:18:35;;;;;;;12.40;8.27;;;30.50;90.60;;;;;;4992557;28;20050;-53
2022/06/18 07:21:03;;;;;;;12.90;8.05;;;29.80;88.00;;;;;;4992169;28;20046;-54
2022/06/18 07:23:29;;;;;;;11.95;7.80;;;29.90;89.70;;;;;;4992108;28;20049;-53
2022/06/18 07:25:54;;;;;;;14.90;7.73;;;29.80;90.80;;;;;;4992663;28;20097;-55
2022/06/18 07:28:20;;;;;;;11.73;7.60;;;30.10;90.80;;;;;;4992152;28;20453;-55
2022/06/18 07:30:46;;;;;;;17.38;8.00;;;29.80;88.10;;;;;;4992289;28;20078;-55
2022/06/18 07:33:16;;;;;;;15.30;8.80;;;30.10;89.50;;;;;;4991930;28;20043;-54
2022/06/18 07:35:42;;;;;;;13.32;8.55;;;29.60;88.90;;;;;;4991929;28;20046;-54
2022/06/18 07:38:07;;;;;;;13.82;8.23;;;29.40;89.30;;;;;;4991105;28;20043;-54
2022/06/18 07:40:37;;;;;;;11.60;7.57;;;29.60;90.00;;;;;;4992022;28;20452;-54
2022/06/18 07:43:06;;;;;;;13.68;7.88;;;29.70;90.30;;;;;;4991840;28;20042;-55
2022/06/18 07:45:31;;;;;;;13.88;7.63;;;29.40;90.10;;;;;;4991718;28;20437;-54
2022/06/18 07:47:57;;;;;;;12.45;8.45;;;28.90;90.30;;;;;;4991913;28;20081;-54
2022/06/18 07:50:23;;;;;;;12.70;7.95;;;28.40;91.40;;;;;;4991702;28;20038;-54
2022/06/18 07:52:49;;;;;;;10.57;7.77;;;28.30;91.30;;;;;;4991650;28;20516;-55
2022/06/18 07:55:22;;;;;;;13.13;7.47;;;28.00;91.30;;;;;;4991749;28;20289;-55
2022/06/18 07:57:49;;;;;;;11.60;8.25;;;27.90;91.50;;;;;;4991453;28;20779;-53
2022/06/18 08:00:17;;;;;;;11.95;8.00;;;27.70;92.00;;;;;;4991618;28;20050;-54
2022/06/18 08:02:43;;;;;;;12.60;7.82;;;27.30;92.30;;;;;;4991683;28;20038;-53
2022/06/18 08:05:12;;;;;;;13.40;7.65;;;27.30;92.30;;;;;;4991869;28;20086;-55
2022/06/18 08:07:38;;;;;;;15.38;8.10;;;27.30;92.90;;;;;;4991604;28;20050;-54
2022/06/18 08:10:05;;;;;;;11.50;7.73;;;26.80;92.90;;;;;;4991731;28;20038;-52
2022/06/18 08:12:31;;;;;;;;;;;27.10;93.20;;;;;;4991814;28;20087;-54
2022/06/18 08:14:58;;;;;;;17.23;7.38;;;27.30;93.70;;;;;;4991165;28;20012;-54
2022/06/18 08:17:25;;;;;;;14.18;6.80;;;27.40;93.30;;;;;;4991343;28;20058;-53
2022/06/18 08:19:51;;;;;;;11.20;8.02;;;27.50;93.10;;;;;;4991299;28;20049;-55
2022/06/18 08:22:17;;;;;;;13.68;7.05;;;26.80;92.20;;;;;;4991229;28;20050;-54
2022/06/18 08:24:43;;;;;;;12.30;7.60;;;26.80;93.20;;;;;;4991272;28;20450;-54
2022/06/18 08:27:09;;;;;;;12.18;6.93;;;27.10;93.30;;;;;;4991180;28;20416;-54
2022/06/18 08:29:35;;;;;;;14.23;7.60;;;27.00;93.30;;;;;;4991262;28;20043;-50
2022/06/18 08:32:02;;;;;;;10.45;7.07;;;27.10;93.30;;;;;;4991227;28;20382;-55
2022/06/18 08:34:27;;;;;;;14.18;7.05;;;27.30;94.40;;;;;;4991103;28;20048;-55
2022/06/18 08:36:53;;;;;;;11.63;7.18;;;27.60;93.80;;;;;;4991055;28;20043;-55
2022/06/18 08:39:19;;;;;;;15.68;7.53;;;27.70;93.10;;;;;;4991207;28;20218;-54
2022/06/18 08:42:20;;;;;;;10.80;7.20;;;27.30;92.40;;;;;;4990988;28;20374;-52
2022/06/18 08:44:55;;;;;;;13.07;6.70;;;27.50;93.30;;;;;;4997812;28;20065;-55
2022/06/18 08:47:48;;;;;;;11.75;5.53;;;27.70;92.90;;;;;;4991191;28;20050;-55
2022/06/18 08:50:25;;;;;;;11.52;5.63;;;27.60;92.90;;;;;;4990797;28;20046;-54
2022/06/18 08:53:04;;;;;;;10.07;5.15;;;27.80;91.60;;;;;;4990792;28;20078;-52
2022/06/18 08:56:00;;;;;;;9.88;5.53;;;27.80;92.10;;;;;;4990935;28;20057;-55
2022/06/18 08:58:25;;;;;;;10.60;5.00;;;28.00;91.70;;;;;;4990894;28;20070;-53
2022/06/18 09:01:05;;;;;;;8.23;4.78;;;28.10;91.50;;;;;;4991073;28;20424;-55
2022/06/18 09:04:11;;;;;;;9.02;4.28;;;28.30;91.90;;;;;;4991199;28;20403;-55
2022/06/18 09:06:59;;;;;;;11.38;4.50;;;28.40;90.30;;;;;;4990856;28;20518;-54
2022/06/18 09:10:07;;;;;;;8.18;4.63;;;28.50;90.20;;;;;;4991174;28;20049;-53
2022/06/18 09:12:38;;;;;;;6.90;3.75;;;28.50;88.30;;;;;;4991363;28;20050;-55
2022/06/18 09:15:19;;;;;;;6.32;4.20;;;28.20;88.50;;;;;;4990739;28;20492;-56
2022/06/18 09:17:54;;;;;;;9.18;4.30;;;28.40;89.70;;;;;;4990814;28;20046;-55
2022/06/18 09:20:29;;;;;;;9.05;4.22;;;28.50;90.00;;;;;;4990671;28;20055;-55
2022/06/18 09:22:57;;;;;;;12.35;4.68;;;28.60;88.90;;;;;;4990594;28;20485;-55
2022/06/18 09:25:27;;;;;;;7.78;4.88;;;28.60;88.30;;;;;;4991039;28;20054;-52
2022/06/18 09:28:00;;;;;;;6.82;3.75;;;28.40;88.60;;;;;;4989547;28;20054;-54
2022/06/18 09:30:36;;;;;;;7.00;3.83;;;28.40;86.10;;;;;;4990688;28;20125;-50
2022/06/18 09:33:09;;;;;;;4.78;2.72;;;28.50;86.90;;;;;;4990335;28;20511;-52
2022/06/18 09:35:40;;;;;;;6.50;4.00;;;28.50;87.60;;;;;;4990416;28;20117;-54
2022/06/18 09:38:24;;;;;;;8.25;3.33;;;28.20;88.70;;;;;;4990242;28;20121;-51
2022/06/18 09:40:57;;;;;;;5.70;2.58;;;28.50;88.00;;;;;;4990425;28;20046;-50
2022/06/18 09:43:42;;;;;;;7.05;3.22;;;28.40;89.20;;;;;;4990367;28;20092;-54
2022/06/18 09:46:26;;;;;;;7.68;3.65;;;28.40;87.40;;;;;;4990316;28;20485;-56
2022/06/18 09:48:53;;;;;;;5.97;2.97;;;28.10;86.60;;;;;;4990329;28;20053;-53
2022/06/18 09:51:36;;;;;;;8.18;3.15;;;28.20;87.70;;;;;;4989935;28;20050;-55
2022/06/18 09:54:07;;;;;;;7.65;4.10;;;27.80;86.70;;;;;;4990351;28;20441;-52
2022/06/18 09:56:38;;;;;;;5.90;3.03;;;28.10;89.40;;;;;;4990215;28;20416;-52
2022/06/18 09:59:21;;;;;;;4.82;2.88;;;28.30;90.00;;;;;;4988962;28;20047;-52
2022/06/18 10:01:52;;;;;;;9.32;3.08;;;28.40;90.20;;;;;;4992822;28;20427;-53
2022/06/18 10:07:26;;;;;;;8.23;3.45;;;28.10;88.90;;;;;;4993405;28;20124;-53
2022/06/18 10:09:53;;;;;;;6.47;3.63;;;27.80;90.50;;;;;;4993583;28;20038;-50
2022/06/18 10:12:26;;;;;;;8.80;3.38;;;27.70;90.00;;;;;;4992163;28;20051;-53
2022/06/18 10:14:57;;;;;;;6.03;2.88;;;27.90;91.30;;;;;;4993502;28;20042;-53
2022/06/18 10:17:29;;;;;;;4.63;3.00;;;27.30;89.70;;;;;;4993279;28;20042;-53
2022/06/18 10:20:09;;;;;;;7.97;3.53;;;27.70;91.30;;;;;;4993363;28;20129;-54
2022/06/18 10:23:09;;;;;;;7.90;4.10;;;27.40;90.40;;;;;;4993484;28;20046;-54
2022/06/18 10:25:50;;;;;;;6.00;3.13;;;27.40;91.90;;;;;;4993281;28;20378;-52
2022/06/18 10:28:26;;;;;;;6.45;3.35;;;27.50;90.90;;;;;;4993107;28;20050;-53
2022/06/18 10:31:13;;;;;;;5.00;3.20;;;27.50;91.20;;;;;;4993208;28;20569;-54
2022/06/18 10:34:17;;;;;;;6.53;3.65;;;27.90;92.30;;;;;;4993508;28;20564;-52
2022/06/18 10:36:53;;;;;;;6.65;3.10;;;27.90;90.90;;;;;;4999540;28;20054;-53
2022/06/18 10:39:33;;;;;;;9.93;4.07;;;27.70;91.00;;;;;;4993214;28;20050;-54
2022/06/18 10:42:17;;;;;;;7.82;3.53;;;27.60;91.30;;;;;;4993073;28;20062;-53
2022/06/18 10:45:07;;;;;;;5.75;3.40;;;27.90;92.50;;;;;;4993362;28;20051;-54
2022/06/18 10:47:35;;;;;;;7.35;3.53;;;28.00;91.10;;;;;;4993046;28;20057;-53
2022/06/18 10:50:08;;;;;;;6.53;3.50;;;28.20;91.70;;;;;;4993408;28;20046;-55
2022/06/18 10:52:34;;;;;;;8.30;3.22;;;27.90;91.40;;;;;;4992690;28;20050;-51
2022/06/18 10:55:16;;;;;;;5.22;2.67;;;28.50;91.50;;;;;;4992949;28;20055;-52
2022/06/18 10:57:42;;;;;;;8.00;3.40;;;28.50;91.90;;;;;;4992831;28;20038;-52
2022/06/18 11:00:28;;;;;;;5.80;3.00;;;28.20;90.60;;;;;;4992878;28;20044;-52
2022/06/18 11:03:00;;;;;;;6.93;3.07;;;27.80;90.60;;;;;;4992541;28;20496;-52
2022/06/18 11:05:35;;;;;;;6.43;3.42;;;28.20;91.60;;;;;;4992385;28;20046;-53
2022/06/18 11:08:04;;;;;;;6.30;3.10;;;28.30;91.10;;;;;;4992264;28;20492;-52
2022/06/18 11:10:37;;;;;;;7.22;3.30;;;28.50;91.40;;;;;;4992264;28;20049;-52
2022/06/18 11:13:16;;;;;;;6.93;3.13;;;28.70;91.20;;;;;;4992308;28;20537;-54
2022/06/18 11:15:41;;;;;;;8.32;3.28;;;29.00;91.40;;;;;;4992403;28;20057;-54
2022/06/18 11:18:21;;;;;;;6.68;3.00;;;29.10;91.10;;;;;;4992362;28;20042;-54
2022/06/18 11:21:05;;;;;;;8.45;2.97;;;28.90;91.00;;;;;;4992445;28;20042;-54
2022/06/18 11:23:50;;;;;;;6.35;3.13;;;29.20;91.00;;;;;;4992698;28;20111;-54
2022/06/18 11:26:22;;;;;;;9.80;3.22;;;29.10;90.80;;;;;;4992270;28;20061;-53
2022/06/18 11:28:51;;;;;;;6.78;2.83;;;29.20;90.40;;;;;;4992406;28;20047;-54
2022/06/18 11:31:28;;;;;;;6.22;2.83;;;29.30;90.00;;;;;;4992077;28;20465;-52
2022/06/18 11:34:05;;;;;;;;;;;29.50;89.60;;;;;;4992476;28;20407;-55
2022/06/18 11:36:52;;;;;;;5.15;2.70;;;29.30;89.90;;;;;;4991948;28;19982;-54
2022/06/18 11:39:36;;;;;;;8.73;2.92;;;29.40;90.90;;;;;;4992240;28;20115;-53
2022/06/18 11:42:12;;;;;;;6.53;2.90;;;29.60;90.30;;;;;;4991959;28;20069;-52
2022/06/18 11:44:48;;;;;;;8.63;3.15;;;29.80;88.80;;;;;;4991897;28;20056;-51
2022/06/18 11:47:27;;;;;;;7.20;3.00;;;29.40;88.20;;;;;;4991615;28;20038;-52
2022/06/18 11:49:58;;;;;;;8.40;3.22;;;29.60;89.50;;;;;;4991969;28;20089;-54
2022/06/18 11:52:56;;;;;;;5.40;2.90;;;30.00;90.40;;;;;;4991597;28;20512;-54
2022/06/18 11:55:30;;;;;;;8.43;3.60;;;30.00;90.00;;;;;;4993324;28;20058;-51
2022/06/18 11:58:19;;;;;;;9.13;3.60;;;29.90;86.50;;;;;;4991721;28;20117;-53
2022/06/18 12:01:10;;;;;;;6.93;2.85;;;29.60;86.30;;;;;;4991586;28;20518;-53
2022/06/18 12:03:43;;;;;;;9.07;3.88;;;29.60;87.20;;;;;;4991514;28;20046;-54
2022/06/18 12:06:32;;;;;;;7.22;3.60;;;29.70;89.00;;;;;;4991265;28;20529;-52
2022/06/18 12:08:57;;;;;;;7.20;2.85;;;29.80;88.40;;;;;;4991644;28;20046;-54
2022/06/18 12:12:11;;;;;;;8.88;3.40;;;29.90;88.10;;;;;;4991408;28;20440;-53
2022/06/18 12:14:45;;;;;;;10.20;3.38;;;30.00;88.10;;;;;;4991515;28;20042;-54
2022/06/18 12:17:21;;;;;;;6.50;3.13;;;29.60;86.30;;;;;;4991337;28;20078;-52
2022/06/18 12:20:13;;;;;;;6.30;3.40;;;29.60;88.20;;;;;;4991346;28;20049;-53
2022/06/18 12:22:48;;;;;;;8.32;3.33;;;29.80;89.40;;;;;;4991232;28;20051;-52
2022/06/18 12:25:33;;;;;;;6.82;3.60;;;29.30;86.90;;;;;;4990874;28;20168;-52
2022/06/18 12:28:10;;;;;;;7.03;3.00;;;29.10;89.20;;;;;;4991321;28;20046;-52
2022/06/18 12:30:49;;;;;;;7.90;3.17;;;29.40;89.90;;;;;;4991641;28;20073;-53
2022/06/18 12:33:28;;;;;;;9.52;3.65;;;29.70;89.70;;;;;;4991038;28;20118;-53
2022/06/18 12:36:10;;;;;;;8.85;3.45;;;29.40;88.20;;;;;;4991032;28;20050;-54
2022/06/18 12:38:58;;;;;;;7.07;3.47;;;28.80;88.60;;;;;;4991110;28;20054;-53
2022/06/18 12:41:39;;;;;;;6.82;3.53;;;29.20;89.90;;;;;;4990783;28;20058;-55
2022/06/18 12:44:16;;;;;;;11.50;4.05;;;29.50;90.30;;;;;;4990948;28;20526;-54
2022/06/18 12:46:49;;;;;;;7.90;3.67;;;29.80;90.30;;;;;;4991167;28;20042;-52
2022/06/18 12:49:33;;;;;;;7.50;3.63;;;29.90;89.20;;;;;;4991023;28;20484;-53
2022/06/18 12:52:17;;;;;;;7.35;3.47;;;30.10;90.10;;;;;;4990704;28;20500;-54
2022/06/18 12:54:51;;;;;;;8.05;3.20;;;29.80;86.70;;;;;;4991062;28;20046;-54
2022/06/18 12:57:35;;;;;;;5.22;3.10;;;30.00;89.20;;;;;;4990933;28;20042;-55
2022/06/18 13:00:19;;;;;;;9.95;3.28;;;30.10;89.40;;;;;;4991176;28;20073;-55
2022/06/18 13:03:17;;;;;;;7.82;3.88;;;29.80;89.90;;;;;;4990804;28;20516;-54
2022/06/18 13:05:48;;;;;;;6.28;3.47;;;30.20;90.30;;;;;;4990994;28;20050;-53
2022/06/18 13:08:28;;;;;;;7.65;3.67;;;29.50;88.80;;;;;;4990806;28;20046;-53
2022/06/18 13:11:00;;;;;;;10.10;4.07;;;29.40;88.20;;;;;;4990966;28;20183;-54
2022/06/18 13:14:09;;;;;;;7.50;3.20;;;29.40;89.60;;;;;;4990777;28;20058;-54
2022/06/18 13:16:54;;;;;;;7.38;3.63;;;29.60;89.40;;;;;;4990578;28;20074;-54
2022/06/18 13:19:35;;;;;;;5.88;3.20;;;29.40;89.50;;;;;;4990616;28;20050;-53
2022/06/18 13:22:03;;;;;;;5.43;3.35;;;29.00;90.00;;;;;;4990498;28;20050;-54
2022/06/18 13:30:33;;;;;;;9.25;3.45;;;29.60;89.90;;;;;;4990291;28;20123;-55